Time;durP1;ratioP1;P1;durP2;ratioP2;P2;SDS_P1;SDS_P2;PMS_P1;PMS_P2;Temp;Humidity;BMP_temperature;BMP_pressure;BME280_temperature;BME280_humidity;BME280_pressure;Samples;Min_cycle;Max_cycle;Signal;HPM_P1;HPM_P2
2022/10/10 00:01:47;;;;;;;10.20;5.72;;;8.20;99.90;;;;;;5133264;27;20042;-61
2022/10/10 00:04:13;;;;;;;8.05;6.00;;;8.20;99.90;;;;;;5133288;27;20483;-61
2022/10/10 00:06:39;;;;;;;10.35;6.30;;;8.20;99.90;;;;;;5133219;27;20055;-61
2022/10/10 00:09:05;;;;;;;9.27;5.50;;;8.20;99.90;;;;;;5133215;27;20042;-61
2022/10/10 00:11:32;;;;;;;8.82;5.80;;;8.20;99.90;;;;;;5132759;27;20039;-61
2022/10/10 00:13:58;;;;;;;6.90;5.43;;;8.20;99.90;;;;;;5134160;27;20075;-61
2022/10/10 00:16:24;;;;;;;9.77;7.25;;;8.20;99.90;;;;;;5130380;27;20043;-61
2022/10/10 00:18:51;;;;;;;8.95;5.65;;;8.30;99.90;;;;;;5133019;27;20386;-62
2022/10/10 00:21:17;;;;;;;8.60;6.18;;;8.20;99.90;;;;;;5132176;27;20099;-61
2022/10/10 00:23:43;;;;;;;8.32;5.95;;;8.20;99.90;;;;;;5132964;27;20150;-61
2022/10/10 00:26:09;;;;;;;10.88;6.00;;;8.20;99.90;;;;;;5132532;27;20538;-61
2022/10/10 00:28:37;;;;;;;7.85;5.22;;;8.30;99.90;;;;;;5132525;27;20059;-61
2022/10/10 00:31:07;;;;;;;8.38;5.88;;;8.30;99.90;;;;;;5115300;27;20087;-62
2022/10/10 00:33:33;;;;;;;;;;;8.30;99.90;;;;;;5132921;27;20043;-60
2022/10/10 00:35:59;;;;;;;8.52;5.35;;;8.30;99.90;;;;;;5133860;27;20064;-61
2022/10/10 00:38:25;;;;;;;9.02;5.50;;;8.20;99.90;;;;;;5132356;27;20498;-61
2022/10/10 00:40:54;;;;;;;7.57;5.15;;;8.20;99.90;;;;;;5132244;27;20099;-61
2022/10/10 00:43:21;;;;;;;7.68;5.93;;;8.30;99.90;;;;;;5115146;27;20508;-61
2022/10/10 00:45:47;;;;;;;8.32;5.00;;;8.30;99.90;;;;;;5129821;27;20047;-61
2022/10/10 00:48:28;;;;;;;7.82;4.93;;;8.30;99.90;;;;;;5133447;27;20047;-64
2022/10/10 00:51:02;;;;;;;7.40;4.75;;;8.30;99.90;;;;;;5132041;27;20517;-61
2022/10/10 00:53:42;;;;;;;5.55;4.47;;;8.40;99.90;;;;;;5132357;27;20043;-61
2022/10/10 00:56:09;;;;;;;8.48;4.90;;;8.50;99.90;;;;;;5133573;27;20045;-62
2022/10/10 00:58:40;;;;;;;7.43;5.10;;;8.60;99.90;;;;;;5133449;27;20042;-61
2022/10/10 01:01:06;;;;;;;10.38;5.05;;;8.60;99.90;;;;;;5132002;27;20043;-60
2022/10/10 01:03:32;;;;;;;14.40;7.28;;;8.60;99.90;;;;;;5132286;27;20074;-61
2022/10/10 01:05:58;;;;;;;9.82;6.10;;;8.60;99.90;;;;;;5132211;27;20551;-61
2022/10/10 01:08:24;;;;;;;7.68;5.07;;;8.70;99.90;;;;;;5133333;27;20482;-61
2022/10/10 01:11:17;;;;;;;8.48;5.47;;;8.60;99.90;;;;;;5114645;27;20487;-61
2022/10/10 01:14:02;;;;;;;8.90;6.00;;;8.70;99.90;;;;;;5131831;27;20068;-62
2022/10/10 01:16:57;;;;;;;8.07;5.50;;;8.70;99.90;;;;;;5129686;27;20034;-63
2022/10/10 01:19:23;;;;;;;8.15;5.18;;;8.70;99.90;;;;;;5088822;27;20402;-62
2022/10/10 01:21:55;;;;;;;9.18;5.53;;;8.70;99.90;;;;;;5132935;27;20039;-61
2022/10/10 01:24:40;;;;;;;9.05;5.38;;;8.70;99.90;;;;;;5114564;28;20047;-61
2022/10/10 01:27:17;;;;;;;7.88;5.72;;;8.70;99.90;;;;;;5132918;27;20055;-61
2022/10/10 01:30:06;;;;;;;10.00;6.32;;;8.70;99.90;;;;;;5131692;28;20058;-61
2022/10/10 01:32:38;;;;;;;7.63;5.38;;;8.60;99.90;;;;;;5133417;27;20042;-63
2022/10/10 01:35:36;;;;;;;11.75;5.50;;;8.60;99.90;;;;;;5139726;27;20042;-61
2022/10/10 01:38:11;;;;;;;7.95;5.57;;;8.60;99.90;;;;;;5120988;27;20089;-61
2022/10/10 01:41:16;;;;;;;8.98;5.75;;;8.60;99.90;;;;;;5138396;27;20043;-61
2022/10/10 01:43:42;;;;;;;7.97;5.28;;;8.50;99.90;;;;;;5124826;27;20047;-62
2022/10/10 01:46:17;;;;;;;12.38;6.05;;;8.50;99.90;;;;;;5136046;27;20045;-62
2022/10/10 01:48:48;;;;;;;8.18;5.55;;;8.50;99.90;;;;;;5138575;27;20039;-62
2022/10/10 01:51:23;;;;;;;6.85;5.32;;;8.50;99.90;;;;;;5138250;27;20041;-60
2022/10/10 01:54:12;;;;;;;12.48;5.95;;;8.40;99.90;;;;;;5138241;27;20074;-61
2022/10/10 01:57:17;;;;;;;8.07;6.00;;;8.40;99.90;;;;;;5138262;27;20042;-61
2022/10/10 02:00:05;;;;;;;9.00;5.25;;;8.40;99.90;;;;;;5087276;27;20051;-61
2022/10/10 02:02:33;;;;;;;7.47;5.65;;;8.40;99.90;;;;;;5139691;27;20088;-61
2022/10/10 02:05:33;;;;;;;8.50;5.80;;;8.40;99.90;;;;;;5121067;27;20043;-61
2022/10/10 02:08:22;;;;;;;10.27;5.60;;;8.40;99.90;;;;;;5139569;27;20062;-60
2022/10/10 02:10:57;;;;;;;7.85;5.13;;;8.40;99.90;;;;;;5138280;27;20035;-62
2022/10/10 02:13:36;;;;;;;7.15;5.40;;;8.30;99.90;;;;;;5138492;27;20398;-60
2022/10/10 02:16:07;;;;;;;11.02;6.00;;;8.30;99.90;;;;;;5135592;27;20062;-62
2022/10/10 02:18:35;;;;;;;7.88;6.20;;;8.20;99.90;;;;;;5139398;27;20448;-61
2022/10/10 02:21:03;;;;;;;10.73;5.60;;;8.20;99.90;;;;;;5139256;27;20099;-61
2022/10/10 02:23:32;;;;;;;7.28;5.57;;;8.20;99.90;;;;;;5138065;27;20049;-61
2022/10/10 02:25:58;;;;;;;9.40;6.07;;;8.20;99.90;;;;;;5138238;27;20084;-61
2022/10/10 02:28:28;;;;;;;12.35;6.55;;;8.10;99.90;;;;;;5137944;27;20047;-61
2022/10/10 02:31:01;;;;;;;7.65;5.88;;;8.10;99.90;;;;;;5139105;27;20548;-61
2022/10/10 02:33:40;;;;;;;11.85;7.03;;;8.10;99.90;;;;;;5139152;27;20039;-61
2022/10/10 02:36:07;;;;;;;8.52;6.28;;;8.10;99.90;;;;;;5139308;27;20079;-61
2022/10/10 02:38:33;;;;;;;9.00;6.35;;;8.00;99.90;;;;;;5137877;27;20042;-61
2022/10/10 02:41:02;;;;;;;9.48;6.20;;;8.10;99.90;;;;;;5137851;27;20085;-60
2022/10/10 02:43:32;;;;;;;9.35;5.80;;;8.10;99.90;;;;;;5137815;27;20043;-61
2022/10/10 02:46:03;;;;;;;8.60;5.97;;;8.10;99.90;;;;;;5132707;27;20448;-62
2022/10/10 02:48:29;;;;;;;;;;;8.00;99.90;;;;;;5136519;27;20043;-60
2022/10/10 02:50:55;;;;;;;10.27;6.43;;;8.00;99.90;;;;;;5134445;27;19965;-61
2022/10/10 02:53:21;;;;;;;11.13;6.45;;;8.00;99.90;;;;;;5134750;27;20426;-61
2022/10/10 02:55:47;;;;;;;9.40;6.18;;;7.90;99.90;;;;;;5135633;27;20088;-62
2022/10/10 02:58:13;;;;;;;8.82;6.57;;;8.00;99.90;;;;;;5134592;27;20091;-60
2022/10/10 03:00:39;;;;;;;8.95;6.35;;;7.90;99.90;;;;;;5135553;27;20043;-62
2022/10/10 03:03:05;;;;;;;9.23;6.40;;;7.90;99.90;;;;;;5135477;27;20051;-61
2022/10/10 03:05:31;;;;;;;9.02;6.88;;;7.90;99.90;;;;;;5134178;27;20042;-60
2022/10/10 03:07:57;;;;;;;7.75;5.28;;;7.90;99.90;;;;;;5117308;27;20046;-61
2022/10/10 03:10:23;;;;;;;12.85;6.20;;;7.90;99.90;;;;;;5134019;27;20039;-61
2022/10/10 03:12:49;;;;;;;10.05;6.50;;;7.90;99.90;;;;;;5135357;27;20027;-62
2022/10/10 03:15:14;;;;;;;9.55;6.82;;;7.90;99.90;;;;;;5135243;27;20570;-61
2022/10/10 03:17:41;;;;;;;12.20;6.22;;;7.90;99.90;;;;;;5132785;27;20031;-61
2022/10/10 03:20:07;;;;;;;8.25;6.35;;;7.90;99.90;;;;;;5135436;27;20067;-62
2022/10/10 03:22:33;;;;;;;10.40;6.82;;;7.90;99.90;;;;;;5135333;27;20031;-61
2022/10/10 03:24:59;;;;;;;11.85;7.25;;;7.90;99.90;;;;;;5133831;27;20046;-62
2022/10/10 03:27:25;;;;;;;11.68;7.00;;;7.90;99.90;;;;;;5133852;27;20035;-61
2022/10/10 03:29:51;;;;;;;10.38;6.50;;;7.90;99.90;;;;;;5133735;27;20125;-60
2022/10/10 03:32:16;;;;;;;11.05;6.40;;;7.90;99.90;;;;;;5133611;27;20055;-62
2022/10/10 03:34:42;;;;;;;11.05;6.53;;;7.90;99.90;;;;;;5133671;27;20043;-60
2022/10/10 03:37:09;;;;;;;9.45;6.25;;;7.90;99.90;;;;;;5133886;27;20122;-61
2022/10/10 03:39:34;;;;;;;8.48;6.60;;;7.90;99.90;;;;;;5134974;27;20418;-63
2022/10/10 03:42:00;;;;;;;9.43;6.90;;;7.90;99.90;;;;;;5133702;27;20031;-62
2022/10/10 03:44:26;;;;;;;10.95;6.82;;;7.90;99.90;;;;;;5133692;27;20061;-61
2022/10/10 03:46:52;;;;;;;12.25;6.82;;;7.90;99.90;;;;;;5132427;27;20046;-62
2022/10/10 03:49:17;;;;;;;12.75;7.13;;;7.90;99.90;;;;;;5133629;27;20487;-61
2022/10/10 03:51:43;;;;;;;8.88;6.10;;;7.90;99.90;;;;;;5133242;27;20107;-61
2022/10/10 03:54:09;;;;;;;10.27;7.13;;;7.80;99.90;;;;;;5116122;27;20050;-61
2022/10/10 03:56:35;;;;;;;13.45;7.18;;;7.80;99.90;;;;;;5132144;27;20117;-61
2022/10/10 03:59:02;;;;;;;11.77;6.50;;;7.80;99.90;;;;;;5115930;27;20046;-62
2022/10/10 04:01:29;;;;;;;12.05;7.18;;;7.80;99.90;;;;;;5133604;27;20051;-60
2022/10/10 04:03:55;;;;;;;9.27;6.13;;;7.70;99.90;;;;;;5133309;27;20035;-61
2022/10/10 04:06:21;;;;;;;7.78;6.40;;;7.70;99.90;;;;;;5133301;27;20046;-61
2022/10/10 04:08:47;;;;;;;11.77;6.45;;;7.70;99.90;;;;;;5133155;27;20039;-61
2022/10/10 04:11:13;;;;;;;12.50;7.40;;;7.70;99.90;;;;;;5132848;27;20399;-60
2022/10/10 04:13:38;;;;;;;10.35;6.68;;;7.70;99.90;;;;;;5116017;27;20038;-60
2022/10/10 04:16:04;;;;;;;11.18;6.32;;;7.70;99.90;;;;;;5130616;27;20457;-60
2022/10/10 04:18:30;;;;;;;10.88;6.90;;;7.70;99.90;;;;;;5134273;27;20114;-62
2022/10/10 04:20:56;;;;;;;10.27;7.07;;;7.70;99.90;;;;;;5133037;27;20118;-61
2022/10/10 04:23:22;;;;;;;10.43;7.20;;;7.60;99.90;;;;;;5134034;27;20502;-61
2022/10/10 04:25:51;;;;;;;10.80;6.47;;;7.60;99.90;;;;;;5134312;27;20078;-61
2022/10/10 04:28:18;;;;;;;10.77;7.32;;;7.60;99.90;;;;;;5133645;27;20055;-61
2022/10/10 04:30:44;;;;;;;12.30;7.40;;;7.60;99.90;;;;;;5132481;27;20126;-61
2022/10/10 04:33:11;;;;;;;11.35;6.72;;;7.60;99.90;;;;;;5132514;27;20497;-61
2022/10/10 04:35:37;;;;;;;9.13;7.32;;;7.60;99.90;;;;;;5132470;27;20126;-61
2022/10/10 04:38:03;;;;;;;11.18;7.28;;;7.60;99.90;;;;;;5132399;27;20108;-63
2022/10/10 04:40:29;;;;;;;11.95;7.22;;;7.60;99.90;;;;;;5132630;27;20049;-61
2022/10/10 04:42:55;;;;;;;11.60;6.72;;;7.60;99.90;;;;;;5133478;27;20043;-61
2022/10/10 04:45:25;;;;;;;11.65;6.40;;;7.60;99.90;;;;;;5132058;27;20051;-61
2022/10/10 04:47:52;;;;;;;13.48;7.22;;;7.60;99.90;;;;;;5133016;27;20070;-61
2022/10/10 04:50:18;;;;;;;10.15;6.40;;;7.60;99.90;;;;;;5132431;27;20042;-61
2022/10/10 04:52:44;;;;;;;12.88;8.05;;;7.60;99.90;;;;;;5133412;27;20510;-60
2022/10/10 04:55:10;;;;;;;17.88;7.85;;;7.60;99.90;;;;;;5132057;27;20039;-60
2022/10/10 04:57:36;;;;;;;12.50;7.05;;;7.60;99.90;;;;;;5132057;27;20031;-61
2022/10/10 05:00:04;;;;;;;11.88;7.32;;;7.60;99.90;;;;;;5132052;27;20039;-61
2022/10/10 05:02:30;;;;;;;10.57;7.05;;;7.60;99.90;;;;;;5133492;27;20042;-62
2022/10/10 05:04:56;;;;;;;12.68;7.57;;;7.60;99.90;;;;;;5133215;27;20103;-61
2022/10/10 05:07:22;;;;;;;12.98;7.50;;;7.60;99.90;;;;;;5131479;27;20046;-61
2022/10/10 05:09:48;;;;;;;11.18;7.35;;;7.60;99.90;;;;;;5133103;27;20042;-61
2022/10/10 05:12:14;;;;;;;12.57;7.93;;;7.60;99.90;;;;;;5131687;27;20040;-60
2022/10/10 05:14:41;;;;;;;9.80;6.70;;;7.60;99.90;;;;;;5131880;27;20074;-62
2022/10/10 05:17:07;;;;;;;11.90;7.82;;;7.60;99.90;;;;;;5129748;27;20096;-60
2022/10/10 05:19:33;;;;;;;11.40;7.55;;;7.60;99.90;;;;;;5133286;27;20054;-61
2022/10/10 05:21:58;;;;;;;10.32;6.93;;;7.60;99.90;;;;;;5131863;27;20428;-61
2022/10/10 05:24:24;;;;;;;11.55;7.32;;;7.60;99.90;;;;;;5131671;27;20050;-61
2022/10/10 05:26:50;;;;;;;11.02;7.00;;;7.60;99.90;;;;;;5131713;27;20035;-60
2022/10/10 05:29:16;;;;;;;9.35;6.90;;;7.60;99.90;;;;;;5131549;27;20134;-61
2022/10/10 05:31:42;;;;;;;9.20;6.70;;;7.60;99.90;;;;;;5131516;28;20058;-60
2022/10/10 05:34:13;;;;;;;10.85;6.97;;;7.60;99.90;;;;;;5133001;27;20407;-61
2022/10/10 05:36:42;;;;;;;9.35;7.65;;;7.60;99.90;;;;;;5132924;27;20095;-61
2022/10/10 05:39:08;;;;;;;10.45;7.03;;;7.60;99.90;;;;;;5131519;28;20121;-61
2022/10/10 05:41:34;;;;;;;10.02;7.40;;;7.60;99.90;;;;;;5131787;28;20116;-61
2022/10/10 05:44:00;;;;;;;8.45;6.45;;;7.60;99.90;;;;;;5131562;28;20487;-61
2022/10/10 05:46:26;;;;;;;10.00;7.40;;;7.60;99.90;;;;;;5129134;28;20050;-61
2022/10/10 05:48:53;;;;;;;15.18;7.55;;;7.50;99.90;;;;;;5131518;28;20121;-62
2022/10/10 05:51:20;;;;;;;11.73;7.82;;;7.50;99.90;;;;;;5132599;28;20039;-62
2022/10/10 05:53:46;;;;;;;15.80;7.78;;;7.50;99.90;;;;;;5132685;27;20110;-62
2022/10/10 05:56:14;;;;;;;19.42;8.70;;;7.50;99.90;;;;;;5132879;28;20035;-62
2022/10/10 05:58:40;;;;;;;9.68;7.20;;;7.50;99.90;;;;;;5131403;28;20091;-62
2022/10/10 06:01:06;;;;;;;11.60;7.85;;;7.50;99.90;;;;;;5132554;27;20051;-62
2022/10/10 06:03:33;;;;;;;9.55;6.95;;;7.50;99.90;;;;;;5132705;27;20502;-61
2022/10/10 06:05:59;;;;;;;9.98;7.00;;;7.60;99.90;;;;;;5132672;27;20055;-62
2022/10/10 06:08:25;;;;;;;11.10;7.80;;;7.60;99.90;;;;;;5131503;28;20148;-62
2022/10/10 06:10:51;;;;;;;12.40;7.25;;;7.60;99.90;;;;;;5131183;28;20380;-62
2022/10/10 06:13:18;;;;;;;10.35;7.10;;;7.60;99.90;;;;;;5132465;27;20495;-62
2022/10/10 06:15:44;;;;;;;10.68;7.43;;;7.70;99.90;;;;;;5128803;28;20041;-62
2022/10/10 06:18:11;;;;;;;11.10;7.45;;;7.60;99.90;;;;;;5131437;28;20114;-62
2022/10/10 06:20:39;;;;;;;9.02;7.10;;;7.70;99.90;;;;;;5135020;27;20103;-62
2022/10/10 06:23:07;;;;;;;12.07;7.43;;;7.70;99.90;;;;;;5136307;27;20440;-61
2022/10/10 06:25:34;;;;;;;14.60;7.05;;;7.80;99.90;;;;;;5135415;27;20051;-62
2022/10/10 06:28:00;;;;;;;8.60;7.32;;;7.80;99.90;;;;;;5136254;27;20062;-62
2022/10/10 06:30:26;;;;;;;14.43;7.68;;;7.90;99.90;;;;;;5135115;27;20051;-62
2022/10/10 06:32:52;;;;;;;10.93;7.32;;;7.90;99.90;;;;;;5135113;27;20035;-62
2022/10/10 06:35:18;;;;;;;14.45;7.88;;;8.00;99.90;;;;;;5136364;27;20050;-61
2022/10/10 06:37:44;;;;;;;11.07;7.68;;;8.10;99.90;;;;;;5135280;27;20395;-62
2022/10/10 06:40:10;;;;;;;10.80;7.90;;;8.10;99.90;;;;;;5135968;27;20046;-61
2022/10/10 06:42:36;;;;;;;10.77;7.65;;;8.20;99.90;;;;;;5117550;27;20043;-62
2022/10/10 06:45:02;;;;;;;9.30;6.65;;;8.20;99.90;;;;;;5134672;27;20061;-62
2022/10/10 06:47:28;;;;;;;10.30;6.75;;;8.40;99.90;;;;;;5132249;27;20039;-62
2022/10/10 06:49:54;;;;;;;12.52;6.68;;;8.40;99.90;;;;;;5134737;27;20099;-62
2022/10/10 06:52:20;;;;;;;11.75;6.65;;;8.40;99.90;;;;;;5144417;27;20035;-62
2022/10/10 06:54:46;;;;;;;10.98;6.85;;;8.50;99.90;;;;;;5156675;27;20074;-63
2022/10/10 06:57:12;;;;;;;10.88;7.22;;;8.60;99.90;;;;;;5155130;27;20491;-62
2022/10/10 06:59:38;;;;;;;11.15;7.45;;;8.60;99.90;;;;;;5156528;27;20031;-63
2022/10/10 07:02:04;;;;;;;9.95;6.75;;;8.60;99.90;;;;;;5155909;27;20347;-63
2022/10/10 07:04:29;;;;;;;12.57;7.35;;;8.70;99.90;;;;;;5156774;27;20111;-63
2022/10/10 07:06:55;;;;;;;12.18;7.22;;;8.70;99.90;;;;;;5155720;27;20058;-62
2022/10/10 07:09:21;;;;;;;11.52;7.75;;;8.80;99.90;;;;;;5155748;27;20047;-63
2022/10/10 07:11:47;;;;;;;10.57;7.00;;;8.80;99.90;;;;;;5155470;27;20084;-62
2022/10/10 07:14:16;;;;;;;10.35;6.57;;;8.90;99.90;;;;;;5156435;27;20041;-62
2022/10/10 07:16:42;;;;;;;11.20;6.85;;;8.90;99.90;;;;;;5153011;27;20042;-62
2022/10/10 07:19:08;;;;;;;9.40;6.95;;;9.00;99.90;;;;;;5155335;27;20046;-62
2022/10/10 07:21:34;;;;;;;9.57;6.63;;;9.00;99.90;;;;;;5155488;27;20054;-62
2022/10/10 07:24:03;;;;;;;14.32;7.20;;;9.10;99.90;;;;;;5155475;27;20050;-62
2022/10/10 07:26:37;;;;;;;8.50;6.88;;;9.20;99.90;;;;;;5155062;27;20046;-62
2022/10/10 07:29:04;;;;;;;11.32;7.03;;;9.30;99.90;;;;;;5154924;27;20069;-62
2022/10/10 07:31:32;;;;;;;9.02;6.85;;;9.50;99.90;;;;;;5154488;27;20046;-63
2022/10/10 07:33:58;;;;;;;12.43;6.80;;;9.60;99.90;;;;;;5137808;27;20531;-64
2022/10/10 07:36:24;;;;;;;9.57;6.28;;;9.70;99.90;;;;;;5156233;27;20034;-63
2022/10/10 07:38:53;;;;;;;11.45;7.60;;;9.80;99.90;;;;;;5156163;27;20047;-62
2022/10/10 07:41:21;;;;;;;11.05;7.13;;;9.90;99.90;;;;;;5155075;27;20447;-62
2022/10/10 07:43:46;;;;;;;11.38;6.60;;;10.00;99.90;;;;;;5154735;27;20100;-62
2022/10/10 07:46:17;;;;;;;9.60;6.30;;;10.10;99.90;;;;;;5152059;27;20038;-62
2022/10/10 07:48:44;;;;;;;9.70;6.95;;;10.20;99.90;;;;;;5155388;27;20394;-63
2022/10/10 07:51:09;;;;;;;15.82;7.32;;;10.30;99.90;;;;;;5154154;27;20046;-62
2022/10/10 07:53:35;;;;;;;10.50;7.10;;;10.40;99.90;;;;;;5155418;27;20058;-62
2022/10/10 07:56:06;;;;;;;14.45;7.13;;;10.50;99.90;;;;;;5154250;27;20042;-63
2022/10/10 07:58:33;;;;;;;11.20;6.70;;;10.80;99.90;;;;;;5155315;27;20162;-62
2022/10/10 08:01:04;;;;;;;11.70;6.57;;;11.00;99.90;;;;;;5155050;27;20041;-63
2022/10/10 08:03:30;;;;;;;10.02;6.55;;;11.30;99.90;;;;;;5153882;27;20043;-62
2022/10/10 08:05:56;;;;;;;12.40;7.18;;;11.60;99.90;;;;;;5155221;27;20047;-62
2022/10/10 08:08:21;;;;;;;10.63;6.82;;;11.80;99.90;;;;;;5153704;27;20042;-63
2022/10/10 08:10:47;;;;;;;11.95;6.80;;;12.00;99.90;;;;;;5153667;27;20070;-63
2022/10/10 08:13:13;;;;;;;8.93;6.53;;;12.30;99.90;;;;;;5154882;27;20034;-63
2022/10/10 08:15:39;;;;;;;11.35;6.28;;;12.60;99.90;;;;;;5151263;27;20045;-63
2022/10/10 08:18:05;;;;;;;9.00;6.82;;;12.80;99.90;;;;;;5154756;27;20486;-62
2022/10/10 08:20:31;;;;;;;9.32;6.72;;;12.80;99.90;;;;;;5153743;27;20122;-63
2022/10/10 08:22:57;;;;;;;11.63;7.03;;;12.90;99.90;;;;;;5134416;27;20092;-63
2022/10/10 08:25:23;;;;;;;11.68;6.78;;;13.00;99.90;;;;;;5133649;27;20031;-63
2022/10/10 08:27:49;;;;;;;9.75;6.47;;;13.00;99.90;;;;;;5133371;27;20049;-63
2022/10/10 08:30:15;;;;;;;7.82;6.25;;;13.20;99.90;;;;;;5134707;27;20093;-63
2022/10/10 08:32:41;;;;;;;11.30;6.57;;;13.20;99.90;;;;;;5116631;27;20043;-63
2022/10/10 08:35:07;;;;;;;9.73;7.32;;;13.60;99.90;;;;;;5133617;27;20525;-62
2022/10/10 08:37:32;;;;;;;8.75;6.00;;;14.00;99.90;;;;;;5133426;27;20059;-63
2022/10/10 08:39:58;;;;;;;9.75;6.10;;;14.60;99.90;;;;;;5134768;27;20125;-63
2022/10/10 08:42:36;;;;;;;11.30;5.97;;;15.10;99.90;;;;;;5132631;27;20530;-62
2022/10/10 08:45:10;;;;;;;10.02;6.30;;;15.20;99.90;;;;;;5133255;27;20050;-63
2022/10/10 08:47:45;;;;;;;12.25;6.05;;;15.40;99.90;;;;;;5131209;27;20066;-63
2022/10/10 08:50:17;;;;;;;7.95;6.32;;;15.60;99.90;;;;;;5134534;27;20456;-63
2022/10/10 08:52:49;;;;;;;7.70;5.90;;;15.80;99.90;;;;;;5133066;27;20039;-63
2022/10/10 08:55:23;;;;;;;9.68;5.90;;;16.10;99.90;;;;;;5133163;27;20078;-63
2022/10/10 08:58:04;;;;;;;9.20;6.05;;;16.40;99.90;;;;;;5134213;27;20039;-63
2022/10/10 09:00:37;;;;;;;9.80;5.90;;;16.50;99.90;;;;;;5132943;27;20046;-63
2022/10/10 09:03:19;;;;;;;10.98;6.25;;;16.30;99.90;;;;;;5133010;27;20054;-63
2022/10/10 09:06:19;;;;;;;11.13;6.55;;;16.00;99.90;;;;;;5132939;27;20081;-63
2022/10/10 09:09:03;;;;;;;10.15;6.70;;;15.80;99.90;;;;;;5133160;27;20034;-63
2022/10/10 09:11:46;;;;;;;10.57;6.68;;;15.80;99.90;;;;;;5115731;27;20040;-63
2022/10/10 09:14:31;;;;;;;12.60;6.60;;;15.80;99.90;;;;;;5132805;27;20042;-62
2022/10/10 09:17:05;;;;;;;10.57;6.70;;;15.70;99.90;;;;;;5132012;27;20133;-63
2022/10/10 09:19:51;;;;;;;9.18;6.63;;;15.70;99.90;;;;;;5132979;27;20035;-63
2022/10/10 09:22:24;;;;;;;10.00;6.97;;;15.70;99.90;;;;;;5134022;27;20422;-62
2022/10/10 09:24:57;;;;;;;11.23;7.10;;;15.80;99.90;;;;;;5132677;27;20498;-63
2022/10/10 09:27:28;;;;;;;11.93;6.75;;;15.90;99.90;;;;;;5115518;28;20054;-63
2022/10/10 09:30:14;;;;;;;13.00;7.47;;;16.00;99.90;;;;;;5132931;27;20124;-62
2022/10/10 09:32:44;;;;;;;11.27;6.90;;;16.00;99.90;;;;;;5132443;28;20039;-63
2022/10/10 09:35:21;;;;;;;8.32;6.45;;;15.80;99.90;;;;;;5128419;27;20480;-63
2022/10/10 09:38:20;;;;;;;9.27;7.85;;;15.70;99.90;;;;;;5112140;28;20177;-64
2022/10/10 09:41:15;;;;;;;10.95;6.63;;;15.50;99.90;;;;;;5123420;28;20049;-63
2022/10/10 09:43:42;;;;;;;8.80;7.40;;;15.30;99.90;;;;;;5132297;28;20118;-63
2022/10/10 09:46:08;;;;;;;10.60;7.28;;;15.00;99.90;;;;;;5130321;28;20071;-63
2022/10/10 09:48:39;;;;;;;11.05;6.38;;;15.00;99.90;;;;;;5132320;28;20454;-63
2022/10/10 09:51:12;;;;;;;9.57;6.45;;;15.30;99.90;;;;;;5115165;28;20126;-63
2022/10/10 09:53:38;;;;;;;10.63;7.20;;;15.80;99.90;;;;;;5134395;27;20092;-62
2022/10/10 09:56:04;;;;;;;10.57;6.45;;;16.00;99.90;;;;;;5137908;27;20070;-63
2022/10/10 09:58:43;;;;;;;15.00;7.53;;;15.90;99.90;;;;;;5136832;27;20089;-63
2022/10/10 10:01:31;;;;;;;10.20;6.28;;;16.00;99.90;;;;;;5136501;27;20100;-62
2022/10/10 10:04:08;;;;;;;10.80;7.47;;;16.30;99.90;;;;;;5137154;27;20147;-63
2022/10/10 10:06:37;;;;;;;9.70;7.53;;;17.00;99.90;;;;;;5133467;27;20501;-63
2022/10/10 10:09:05;;;;;;;11.33;7.37;;;17.50;99.90;;;;;;5135244;27;20038;-63
2022/10/10 10:11:35;;;;;;;12.70;7.50;;;18.10;99.90;;;;;;5145443;27;20521;-62
2022/10/10 10:14:01;;;;;;;9.85;6.88;;;18.50;99.90;;;;;;5136843;27;20047;-63
2022/10/10 10:16:37;;;;;;;12.13;7.95;;;18.40;99.90;;;;;;5134804;27;20038;-63
2022/10/10 10:19:26;;;;;;;11.93;7.28;;;17.90;99.90;;;;;;5136024;27;20132;-62
2022/10/10 10:21:54;;;;;;;18.25;8.38;;;17.30;99.90;;;;;;5135632;27;20050;-62
2022/10/10 10:24:23;;;;;;;11.45;7.88;;;16.70;99.90;;;;;;5136904;27;20031;-62
2022/10/10 10:26:49;;;;;;;11.73;7.70;;;16.40;99.90;;;;;;5136987;27;20038;-63
2022/10/10 10:29:30;;;;;;;14.85;8.50;;;16.10;99.90;;;;;;5135338;27;20542;-62
2022/10/10 10:31:59;;;;;;;13.40;8.13;;;16.00;99.90;;;;;;5135479;27;20126;-63
2022/10/10 10:34:41;;;;;;;14.15;7.20;;;15.80;99.90;;;;;;5136665;27;20082;-63
2022/10/10 10:37:36;;;;;;;12.88;7.78;;;15.60;99.90;;;;;;5136424;27;20088;-62
2022/10/10 10:40:03;;;;;;;12.77;8.57;;;15.40;99.90;;;;;;5135170;27;20050;-62
2022/10/10 10:42:41;;;;;;;13.05;7.90;;;15.20;99.90;;;;;;5135537;27;20047;-62
2022/10/10 10:45:17;;;;;;;14.95;8.38;;;15.00;99.90;;;;;;5117949;27;20494;-62
2022/10/10 10:48:03;;;;;;;11.48;9.05;;;14.80;99.90;;;;;;5133166;27;20042;-63
2022/10/10 10:51:10;;;;;;;13.73;8.32;;;14.60;99.90;;;;;;5136285;27;20035;-63
2022/10/10 10:53:51;;;;;;;14.82;8.30;;;14.50;99.90;;;;;;5134872;27;20051;-63
2022/10/10 10:56:40;;;;;;;11.82;8.25;;;14.40;99.90;;;;;;5135045;27;20047;-62
2022/10/10 10:59:22;;;;;;;13.27;8.48;;;14.30;99.90;;;;;;5096037;27;20043;-62
2022/10/10 11:01:52;;;;;;;13.60;8.52;;;14.20;99.90;;;;;;5136414;27;20447;-62
2022/10/10 11:04:55;;;;;;;12.18;8.63;;;14.10;99.90;;;;;;5117656;27;20117;-63
2022/10/10 11:07:25;;;;;;;12.85;8.82;;;14.00;99.90;;;;;;5134754;27;20051;-62
2022/10/10 11:10:06;;;;;;;;;;;13.90;99.90;;;;;;5135320;27;20043;-62
2022/10/10 11:13:17;;;;;;;12.70;8.13;;;13.90;99.90;;;;;;5134599;27;20284;-62
2022/10/10 11:15:52;;;;;;;15.70;8.63;;;13.90;99.90;;;;;;5093544;27;20047;-62
2022/10/10 11:18:26;;;;;;;13.57;8.45;;;13.80;99.90;;;;;;5117640;27;20035;-62
2022/10/10 11:21:02;;;;;;;14.75;8.02;;;13.80;99.90;;;;;;5135938;27;20488;-63
2022/10/10 11:24:03;;;;;;;15.10;8.38;;;13.80;99.90;;;;;;5135776;27;20035;-63
2022/10/10 11:26:36;;;;;;;14.27;8.77;;;13.90;99.90;;;;;;5091836;27;20079;-63
2022/10/10 11:29:08;;;;;;;15.23;8.00;;;13.90;99.90;;;;;;5117146;27;20059;-63
2022/10/10 11:31:52;;;;;;;12.93;8.90;;;13.90;99.90;;;;;;5134261;27;20047;-62
2022/10/10 11:34:46;;;;;;;16.08;8.73;;;13.90;99.90;;;;;;5117047;27;20039;-62
2022/10/10 11:37:29;;;;;;;11.23;8.30;;;13.90;99.90;;;;;;5133848;27;20045;-62
2022/10/10 11:40:00;;;;;;;15.52;8.90;;;13.90;99.90;;;;;;5135371;27;20443;-62
2022/10/10 11:42:32;;;;;;;17.00;9.60;;;13.90;99.90;;;;;;5131736;27;20073;-62
2022/10/10 11:45:14;;;;;;;13.65;9.02;;;14.00;99.90;;;;;;5133774;27;20073;-62
2022/10/10 11:47:49;;;;;;;14.02;9.85;;;14.10;99.90;;;;;;5114444;27;20043;-62
2022/10/10 11:50:21;;;;;;;15.70;8.80;;;14.10;99.90;;;;;;5135034;27;20357;-62
2022/10/10 11:52:52;;;;;;;14.15;9.07;;;14.30;99.90;;;;;;5133628;27;20039;-63
2022/10/10 11:55:21;;;;;;;;;;;14.40;99.90;;;;;;5135340;27;20509;-63
2022/10/10 11:58:05;;;;;;;12.55;8.15;;;14.50;99.90;;;;;;5133694;27;20374;-62
2022/10/10 12:00:42;;;;;;;17.42;8.85;;;14.50;99.90;;;;;;5134565;27;20035;-61
2022/10/10 12:03:08;;;;;;;17.60;10.45;;;14.50;99.90;;;;;;5133542;27;20042;-61
2022/10/10 12:05:38;;;;;;;18.23;9.85;;;14.50;99.90;;;;;;5133378;27;20624;-61
2022/10/10 12:08:20;;;;;;;16.85;10.25;;;14.50;99.90;;;;;;5133483;27;20043;-61
2022/10/10 12:10:54;;;;;;;17.67;10.80;;;14.50;99.90;;;;;;5133497;27;20418;-61
2022/10/10 12:14:01;;;;;;;14.00;9.68;;;14.40;99.90;;;;;;5133358;27;20107;-62
2022/10/10 12:16:34;;;;;;;14.13;9.90;;;14.40;99.90;;;;;;5031712;28;20100;-62
2022/10/10 12:19:23;;;;;;;18.05;9.77;;;14.50;99.90;;;;;;5121093;27;20050;-62
2022/10/10 12:22:01;;;;;;;17.67;11.18;;;14.50;99.90;;;;;;5134724;27;20042;-61
2022/10/10 12:24:30;;;;;;;15.93;10.90;;;14.50;99.90;;;;;;5134462;27;20050;-61
2022/10/10 12:26:56;;;;;;;16.83;10.85;;;14.50;99.90;;;;;;5133105;27;20039;-61
2022/10/10 12:29:47;;;;;;;14.05;9.60;;;14.40;99.90;;;;;;5132326;27;20047;-61
2022/10/10 12:32:16;;;;;;;17.23;11.30;;;14.40;99.90;;;;;;5131183;27;20039;-61
2022/10/10 12:34:48;;;;;;;20.20;9.80;;;14.40;99.90;;;;;;5134090;27;20044;-61
2022/10/10 12:37:20;;;;;;;21.77;12.85;;;14.30;99.90;;;;;;5134105;27;20160;-61
2022/10/10 12:40:05;;;;;;;18.98;11.88;;;14.30;99.90;;;;;;5132614;27;20047;-60
2022/10/10 12:42:46;;;;;;;19.67;11.73;;;14.30;99.90;;;;;;5115407;27;20046;-61
2022/10/10 12:45:30;;;;;;;21.08;11.48;;;14.30;99.90;;;;;;5132604;27;20053;-62
2022/10/10 12:48:00;;;;;;;14.00;10.73;;;14.30;99.90;;;;;;5131136;27;20045;-61
2022/10/10 12:50:33;;;;;;;;;;;14.20;99.90;;;;;;5134259;27;20402;-62
2022/10/10 12:53:11;;;;;;;24.80;12.13;;;14.20;99.90;;;;;;5132632;27;19968;-62
2022/10/10 12:55:49;;;;;;;25.60;13.27;;;14.20;99.90;;;;;;5132588;27;20398;-62
2022/10/10 12:58:15;;;;;;;18.70;12.50;;;14.10;99.90;;;;;;5132611;27;20391;-62
2022/10/10 13:00:43;;;;;;;19.35;12.77;;;14.10;99.90;;;;;;5133538;27;20046;-62
2022/10/10 13:03:23;;;;;;;18.45;12.27;;;14.10;99.90;;;;;;5115240;27;20453;-62
2022/10/10 13:05:50;;;;;;;19.40;13.20;;;14.20;99.90;;;;;;5132313;27;20054;-62
2022/10/10 13:08:19;;;;;;;16.85;11.48;;;14.10;99.90;;;;;;5132240;27;20039;-62
2022/10/10 13:11:06;;;;;;;20.10;12.25;;;14.10;99.90;;;;;;5132082;27;20043;-62